sensor_id;sensor_type;location;lat;lon;timestamp;temperature;humidity
5246;DHT22;54412;51.206;6.888;2022-12-07T00:01:33;6.30;99.90
5246;DHT22;54412;51.206;6.888;2022-12-07T00:04:03;6.30;99.90
5246;DHT22;54412;51.206;6.888;2022-12-07T00:06:36;6.30;99.90
5246;DHT22;54412;51.206;6.888;2022-12-07T00:09:10;6.40;99.90
5246;DHT22;54412;51.206;6.888;2022-12-07T00:11:37;6.30;99.90
5246;DHT22;54412;51.206;6.888;2022-12-07T00:14:06;6.40;99.90
5246;DHT22;54412;51.206;6.888;2022-12-07T00:16:35;6.20;99.90
5246;DHT22;54412;51.206;6.888;2022-12-07T00:19:02;6.30;99.90
5246;DHT22;54412;51.206;6.888;2022-12-07T00:21:32;6.20;99.90
5246;DHT22;54412;51.206;6.888;2022-12-07T00:24:00;6.30;99.90
5246;DHT22;54412;51.206;6.888;2022-12-07T00:26:32;6.20;99.90
5246;DHT22;54412;51.206;6.888;2022-12-07T00:29:05;6.30;99.90
5246;DHT22;54412;51.206;6.888;2022-12-07T00:31:35;6.30;99.90
5246;DHT22;54412;51.206;6.888;2022-12-07T00:34:05;6.30;99.90
5246;DHT22;54412;51.206;6.888;2022-12-07T00:36:31;6.40;99.90
5246;DHT22;54412;51.206;6.888;2022-12-07T00:38:58;6.40;99.90
5246;DHT22;54412;51.206;6.888;2022-12-07T00:41:28;6.30;99.90
5246;DHT22;54412;51.206;6.888;2022-12-07T00:43:55;6.30;99.90
5246;DHT22;54412;51.206;6.888;2022-12-07T00:46:22;6.30;99.90
5246;DHT22;54412;51.206;6.888;2022-12-07T00:48:50;6.30;99.90
5246;DHT22;54412;51.206;6.888;2022-12-07T00:51:18;6.30;99.90
5246;DHT22;54412;51.206;6.888;2022-12-07T00:53:45;6.30;99.90
5246;DHT22;54412;51.206;6.888;2022-12-07T00:56:22;6.10;99.90
5246;DHT22;54412;51.206;6.888;2022-12-07T00:59:00;6.10;99.90
5246;DHT22;54412;51.206;6.888;2022-12-07T01:01:29;6.20;99.90
5246;DHT22;54412;51.206;6.888;2022-12-07T01:04:00;6.20;99.90
5246;DHT22;54412;51.206;6.888;2022-12-07T01:06:29;6.20;99.90
5246;DHT22;54412;51.206;6.888;2022-12-07T01:08:55;6.20;99.90
5246;DHT22;54412;51.206;6.888;2022-12-07T01:11:24;6.20;99.90
5246;DHT22;54412;51.206;6.888;2022-12-07T01:13:52;6.30;99.90
5246;DHT22;54412;51.206;6.888;2022-12-07T01:16:20;6.30;99.90
5246;DHT22;54412;51.206;6.888;2022-12-07T01:18:51;6.30;99.90
5246;DHT22;54412;51.206;6.888;2022-12-07T01:21:23;6.30;99.90
5246;DHT22;54412;51.206;6.888;2022-12-07T01:23:50;6.30;99.90
5246;DHT22;54412;51.206;6.888;2022-12-07T01:26:19;6.30;99.90
5246;DHT22;54412;51.206;6.888;2022-12-07T01:28:47;6.30;99.90
5246;DHT22;54412;51.206;6.888;2022-12-07T01:31:16;6.40;99.90
5246;DHT22;54412;51.206;6.888;2022-12-07T01:33:45;6.40;99.90
5246;DHT22;54412;51.206;6.888;2022-12-07T01:36:22;6.40;99.90
5246;DHT22;54412;51.206;6.888;2022-12-07T01:38:53;6.40;99.90
5246;DHT22;54412;51.206;6.888;2022-12-07T01:41:22;6.30;99.90
5246;DHT22;54412;51.206;6.888;2022-12-07T01:44:10;6.30;99.90
5246;DHT22;54412;51.206;6.888;2022-12-07T01:46:36;6.40;99.90
5246;DHT22;54412;51.206;6.888;2022-12-07T01:49:04;6.40;99.90
5246;DHT22;54412;51.206;6.888;2022-12-07T01:51:34;6.30;99.90
5246;DHT22;54412;51.206;6.888;2022-12-07T01:54:02;6.30;99.90
5246;DHT22;54412;51.206;6.888;2022-12-07T01:56:29;6.30;99.90
5246;DHT22;54412;51.206;6.888;2022-12-07T01:58:57;6.30;99.90
5246;DHT22;54412;51.206;6.888;2022-12-07T02:01:25;6.40;99.90
5246;DHT22;54412;51.206;6.888;2022-12-07T02:03:52;6.40;99.90
5246;DHT22;54412;51.206;6.888;2022-12-07T02:06:22;6.40;99.90
5246;DHT22;54412;51.206;6.888;2022-12-07T02:08:50;6.40;99.90
5246;DHT22;54412;51.206;6.888;2022-12-07T02:11:16;6.40;99.90
5246;DHT22;54412;51.206;6.888;2022-12-07T02:13:43;6.30;99.90
5246;DHT22;54412;51.206;6.888;2022-12-07T02:19:38;6.30;99.90
5246;DHT22;54412;51.206;6.888;2022-12-07T02:28:21;6.30;99.90
5246;DHT22;54412;51.206;6.888;2022-12-07T02:30:55;6.30;99.90
5246;DHT22;54412;51.206;6.888;2022-12-07T02:33:41;6.30;99.90
5246;DHT22;54412;51.206;6.888;2022-12-07T02:46:04;6.30;99.90
5246;DHT22;54412;51.206;6.888;2022-12-07T02:48:36;6.30;99.90
5246;DHT22;54412;51.206;6.888;2022-12-07T02:51:03;6.30;99.90
5246;DHT22;54412;51.206;6.888;2022-12-07T02:53:40;6.30;99.90
5246;DHT22;54412;51.206;6.888;2022-12-07T02:56:45;6.30;99.90
5246;DHT22;54412;51.206;6.888;2022-12-07T03:08:30;6.40;99.90
5246;DHT22;54412;51.206;6.888;2022-12-07T03:11:06;6.30;99.90
5246;DHT22;54412;51.206;6.888;2022-12-07T03:14:00;6.30;99.90
5246;DHT22;54412;51.206;6.888;2022-12-07T03:16:43;6.30;99.90
5246;DHT22;54412;51.206;6.888;2022-12-07T03:19:20;6.30;99.90
5246;DHT22;54412;51.206;6.888;2022-12-07T03:21:53;6.30;99.90
5246;DHT22;54412;51.206;6.888;2022-12-07T03:24:27;6.30;99.90
5246;DHT22;54412;51.206;6.888;2022-12-07T03:27:15;6.30;99.90
5246;DHT22;54412;51.206;6.888;2022-12-07T03:29:55;6.30;99.90
5246;DHT22;54412;51.206;6.888;2022-12-07T03:32:35;6.30;99.90
5246;DHT22;54412;51.206;6.888;2022-12-07T03:35:21;6.30;99.90
5246;DHT22;54412;51.206;6.888;2022-12-07T03:41:05;6.30;99.90
5246;DHT22;54412;51.206;6.888;2022-12-07T03:43:36;6.30;99.90
5246;DHT22;54412;51.206;6.888;2022-12-07T03:46:27;6.30;99.90
5246;DHT22;54412;51.206;6.888;2022-12-07T03:49:08;6.30;99.90
5246;DHT22;54412;51.206;6.888;2022-12-07T03:51:59;6.30;99.90
5246;DHT22;54412;51.206;6.888;2022-12-07T03:57:05;6.30;99.90
5246;DHT22;54412;51.206;6.888;2022-12-07T03:59:33;6.30;99.90
5246;DHT22;54412;51.206;6.888;2022-12-07T04:02:04;6.30;99.90
5246;DHT22;54412;51.206;6.888;2022-12-07T04:04:31;6.20;99.90
5246;DHT22;54412;51.206;6.888;2022-12-07T04:06:58;6.20;99.90
5246;DHT22;54412;51.206;6.888;2022-12-07T04:09:24;6.20;99.90
5246;DHT22;54412;51.206;6.888;2022-12-07T04:11:50;6.20;99.90
5246;DHT22;54412;51.206;6.888;2022-12-07T04:14:16;6.20;99.90
5246;DHT22;54412;51.206;6.888;2022-12-07T04:16:53;6.20;99.90
5246;DHT22;54412;51.206;6.888;2022-12-07T04:19:31;6.30;99.90
5246;DHT22;54412;51.206;6.888;2022-12-07T04:22:00;6.20;99.90
5246;DHT22;54412;51.206;6.888;2022-12-07T04:24:28;6.20;99.90
5246;DHT22;54412;51.206;6.888;2022-12-07T04:26:54;6.20;99.90
5246;DHT22;54412;51.206;6.888;2022-12-07T04:29:20;6.20;99.90
5246;DHT22;54412;51.206;6.888;2022-12-07T04:31:46;6.20;99.90
5246;DHT22;54412;51.206;6.888;2022-12-07T04:34:13;6.20;99.90
5246;DHT22;54412;51.206;6.888;2022-12-07T04:36:40;6.20;99.90
5246;DHT22;54412;51.206;6.888;2022-12-07T04:39:07;6.10;99.90
5246;DHT22;54412;51.206;6.888;2022-12-07T04:41:38;6.20;99.90
5246;DHT22;54412;51.206;6.888;2022-12-07T04:44:04;6.20;99.90
5246;DHT22;54412;51.206;6.888;2022-12-07T04:46:32;6.20;99.90
5246;DHT22;54412;51.206;6.888;2022-12-07T04:48:58;6.20;99.90
5246;DHT22;54412;51.206;6.888;2022-12-07T04:51:27;6.20;99.90
5246;DHT22;54412;51.206;6.888;2022-12-07T04:53:55;6.10;99.90
5246;DHT22;54412;51.206;6.888;2022-12-07T04:56:22;6.10;99.90
5246;DHT22;54412;51.206;6.888;2022-12-07T04:58:48;6.10;99.90
5246;DHT22;54412;51.206;6.888;2022-12-07T05:01:16;6.10;99.90
5246;DHT22;54412;51.206;6.888;2022-12-07T05:03:42;6.10;99.90
5246;DHT22;54412;51.206;6.888;2022-12-07T05:06:09;6.20;99.90
5246;DHT22;54412;51.206;6.888;2022-12-07T05:08:35;6.20;99.90
5246;DHT22;54412;51.206;6.888;2022-12-07T05:11:02;6.10;99.90
5246;DHT22;54412;51.206;6.888;2022-12-07T05:13:29;6.10;99.90
5246;DHT22;54412;51.206;6.888;2022-12-07T05:15:55;6.10;99.90
5246;DHT22;54412;51.206;6.888;2022-12-07T05:18:20;6.00;99.90
5246;DHT22;54412;51.206;6.888;2022-12-07T05:20:46;6.00;99.90
5246;DHT22;54412;51.206;6.888;2022-12-07T05:23:12;6.00;99.90
5246;DHT22;54412;51.206;6.888;2022-12-07T05:25:38;6.10;99.90
5246;DHT22;54412;51.206;6.888;2022-12-07T05:28:05;6.00;99.90
5246;DHT22;54412;51.206;6.888;2022-12-07T05:30:31;6.10;99.90
5246;DHT22;54412;51.206;6.888;2022-12-07T05:32:58;6.00;99.90
5246;DHT22;54412;51.206;6.888;2022-12-07T05:35:23;6.00;99.90
5246;DHT22;54412;51.206;6.888;2022-12-07T05:37:49;6.00;99.90
5246;DHT22;54412;51.206;6.888;2022-12-07T05:40:15;6.00;99.90
5246;DHT22;54412;51.206;6.888;2022-12-07T05:42:41;6.00;99.90
5246;DHT22;54412;51.206;6.888;2022-12-07T05:45:08;6.00;99.90
5246;DHT22;54412;51.206;6.888;2022-12-07T05:47:35;6.00;99.90
5246;DHT22;54412;51.206;6.888;2022-12-07T05:50:01;6.00;99.90
5246;DHT22;54412;51.206;6.888;2022-12-07T05:52:27;6.00;99.90
5246;DHT22;54412;51.206;6.888;2022-12-07T05:54:53;6.00;99.90
5246;DHT22;54412;51.206;6.888;2022-12-07T05:57:19;6.00;99.90
5246;DHT22;54412;51.206;6.888;2022-12-07T05:59:45;5.90;99.90
5246;DHT22;54412;51.206;6.888;2022-12-07T06:02:13;5.90;99.90
5246;DHT22;54412;51.206;6.888;2022-12-07T06:04:44;5.90;99.90
5246;DHT22;54412;51.206;6.888;2022-12-07T06:07:12;5.90;99.90
5246;DHT22;54412;51.206;6.888;2022-12-07T06:09:40;6.00;99.90
5246;DHT22;54412;51.206;6.888;2022-12-07T06:12:06;6.00;99.90
5246;DHT22;54412;51.206;6.888;2022-12-07T06:14:54;6.10;99.90
5246;DHT22;54412;51.206;6.888;2022-12-07T06:17:19;6.10;99.90
5246;DHT22;54412;51.206;6.888;2022-12-07T06:19:45;6.20;99.90
5246;DHT22;54412;51.206;6.888;2022-12-07T06:22:11;6.20;99.90
5246;DHT22;54412;51.206;6.888;2022-12-07T06:24:38;6.20;99.90
5246;DHT22;54412;51.206;6.888;2022-12-07T06:27:05;6.10;99.90
5246;DHT22;54412;51.206;6.888;2022-12-07T06:29:31;6.20;99.90
5246;DHT22;54412;51.206;6.888;2022-12-07T06:31:57;6.20;99.90
5246;DHT22;54412;51.206;6.888;2022-12-07T06:34:23;6.10;99.90
5246;DHT22;54412;51.206;6.888;2022-12-07T06:36:50;6.00;99.90
5246;DHT22;54412;51.206;6.888;2022-12-07T06:39:19;6.10;99.90
5246;DHT22;54412;51.206;6.888;2022-12-07T06:41:47;6.10;99.90
5246;DHT22;54412;51.206;6.888;2022-12-07T06:44:13;6.00;99.90
5246;DHT22;54412;51.206;6.888;2022-12-07T06:46:38;6.00;99.90
5246;DHT22;54412;51.206;6.888;2022-12-07T06:49:04;6.00;99.90
5246;DHT22;54412;51.206;6.888;2022-12-07T06:51:32;6.00;99.90
5246;DHT22;54412;51.206;6.888;2022-12-07T06:53:58;6.00;99.90
5246;DHT22;54412;51.206;6.888;2022-12-07T06:56:24;6.10;99.90
5246;DHT22;54412;51.206;6.888;2022-12-07T06:58:50;6.10;99.90
5246;DHT22;54412;51.206;6.888;2022-12-07T07:01:17;6.10;99.90
5246;DHT22;54412;51.206;6.888;2022-12-07T07:03:45;6.10;99.90
5246;DHT22;54412;51.206;6.888;2022-12-07T07:06:12;6.00;99.90
5246;DHT22;54412;51.206;6.888;2022-12-07T07:08:39;6.00;99.90
5246;DHT22;54412;51.206;6.888;2022-12-07T07:11:06;6.00;99.90
5246;DHT22;54412;51.206;6.888;2022-12-07T07:13:33;6.00;99.90
5246;DHT22;54412;51.206;6.888;2022-12-07T07:15:59;6.00;99.90
5246;DHT22;54412;51.206;6.888;2022-12-07T07:18:26;6.10;99.90
5246;DHT22;54412;51.206;6.888;2022-12-07T07:20:52;6.10;99.90
5246;DHT22;54412;51.206;6.888;2022-12-07T07:23:20;6.10;99.90
5246;DHT22;54412;51.206;6.888;2022-12-07T07:25:46;6.10;99.90
5246;DHT22;54412;51.206;6.888;2022-12-07T07:28:12;6.10;99.90
5246;DHT22;54412;51.206;6.888;2022-12-07T07:30:38;6.10;99.90
5246;DHT22;54412;51.206;6.888;2022-12-07T07:33:05;6.10;99.90
5246;DHT22;54412;51.206;6.888;2022-12-07T07:35:32;6.10;99.90
5246;DHT22;54412;51.206;6.888;2022-12-07T07:37:59;6.10;99.90
5246;DHT22;54412;51.206;6.888;2022-12-07T07:40:26;6.00;99.90
5246;DHT22;54412;51.206;6.888;2022-12-07T07:42:53;5.90;99.90
5246;DHT22;54412;51.206;6.888;2022-12-07T07:45:21;5.90;99.90
5246;DHT22;54412;51.206;6.888;2022-12-07T07:47:48;5.90;99.90
5246;DHT22;54412;51.206;6.888;2022-12-07T07:50:14;5.80;99.90
5246;DHT22;54412;51.206;6.888;2022-12-07T07:52:41;5.90;99.90
5246;DHT22;54412;51.206;6.888;2022-12-07T07:55:08;5.90;99.90
5246;DHT22;54412;51.206;6.888;2022-12-07T07:57:35;6.00;99.90
5246;DHT22;54412;51.206;6.888;2022-12-07T08:00:05;5.90;99.90
5246;DHT22;54412;51.206;6.888;2022-12-07T08:02:33;6.00;99.90
5246;DHT22;54412;51.206;6.888;2022-12-07T08:04:59;5.90;99.90
5246;DHT22;54412;51.206;6.888;2022-12-07T08:07:25;6.00;99.90
5246;DHT22;54412;51.206;6.888;2022-12-07T08:09:52;6.00;99.90
5246;DHT22;54412;51.206;6.888;2022-12-07T08:12:18;6.10;99.90
5246;DHT22;54412;51.206;6.888;2022-12-07T08:14:43;6.20;99.90
5246;DHT22;54412;51.206;6.888;2022-12-07T08:17:09;6.20;99.90
5246;DHT22;54412;51.206;6.888;2022-12-07T08:19:35;6.30;99.90
5246;DHT22;54412;51.206;6.888;2022-12-07T08:22:00;6.30;99.90
5246;DHT22;54412;51.206;6.888;2022-12-07T08:24:26;6.20;99.90
5246;DHT22;54412;51.206;6.888;2022-12-07T08:26:52;6.20;99.90
5246;DHT22;54412;51.206;6.888;2022-12-07T08:29:18;6.20;99.90
5246;DHT22;54412;51.206;6.888;2022-12-07T08:31:44;6.20;99.90
5246;DHT22;54412;51.206;6.888;2022-12-07T08:34:13;6.20;99.90
5246;DHT22;54412;51.206;6.888;2022-12-07T08:36:39;6.20;99.90
5246;DHT22;54412;51.206;6.888;2022-12-07T08:39:05;6.40;99.90
5246;DHT22;54412;51.206;6.888;2022-12-07T08:41:31;6.50;99.90
5246;DHT22;54412;51.206;6.888;2022-12-07T08:43:57;6.50;99.90
5246;DHT22;54412;51.206;6.888;2022-12-07T08:46:39;6.30;99.90
5246;DHT22;54412;51.206;6.888;2022-12-07T08:49:17;6.20;99.90
5246;DHT22;54412;51.206;6.888;2022-12-07T08:51:48;6.20;99.90
5246;DHT22;54412;51.206;6.888;2022-12-07T08:54:16;6.10;99.90
5246;DHT22;54412;51.206;6.888;2022-12-07T08:56:44;6.10;99.90
5246;DHT22;54412;51.206;6.888;2022-12-07T08:59:13;6.10;99.90
5246;DHT22;54412;51.206;6.888;2022-12-07T09:01:41;6.10;99.90
5246;DHT22;54412;51.206;6.888;2022-12-07T09:04:06;6.30;99.90
5246;DHT22;54412;51.206;6.888;2022-12-07T09:06:33;6.30;99.90
5246;DHT22;54412;51.206;6.888;2022-12-07T09:09:00;6.50;99.90
5246;DHT22;54412;51.206;6.888;2022-12-07T09:11:27;6.50;99.90
5246;DHT22;54412;51.206;6.888;2022-12-07T09:13:52;6.60;99.90
5246;DHT22;54412;51.206;6.888;2022-12-07T09:16:18;6.60;99.90
5246;DHT22;54412;51.206;6.888;2022-12-07T09:18:44;6.60;99.90
5246;DHT22;54412;51.206;6.888;2022-12-07T09:21:09;6.60;99.90
5246;DHT22;54412;51.206;6.888;2022-12-07T09:23:35;6.50;99.90
5246;DHT22;54412;51.206;6.888;2022-12-07T09:26:02;6.80;99.90
5246;DHT22;54412;51.206;6.888;2022-12-07T09:28:32;7.00;99.90
5246;DHT22;54412;51.206;6.888;2022-12-07T09:30:58;7.30;99.90
5246;DHT22;54412;51.206;6.888;2022-12-07T09:33:24;7.40;99.90
5246;DHT22;54412;51.206;6.888;2022-12-07T09:35:50;7.40;99.90
5246;DHT22;54412;51.206;6.888;2022-12-07T09:38:18;7.50;99.90
5246;DHT22;54412;51.206;6.888;2022-12-07T09:40:45;7.50;99.90
5246;DHT22;54412;51.206;6.888;2022-12-07T09:43:20;7.40;99.90
5246;DHT22;54412;51.206;6.888;2022-12-07T09:45:53;7.30;99.90
5246;DHT22;54412;51.206;6.888;2022-12-07T09:48:25;7.40;99.90
5246;DHT22;54412;51.206;6.888;2022-12-07T09:51:15;7.30;99.90
5246;DHT22;54412;51.206;6.888;2022-12-07T09:53:42;7.20;99.90
5246;DHT22;54412;51.206;6.888;2022-12-07T09:56:17;7.20;99.90
5246;DHT22;54412;51.206;6.888;2022-12-07T09:58:45;7.10;99.90
5246;DHT22;54412;51.206;6.888;2022-12-07T10:01:15;7.10;99.90
5246;DHT22;54412;51.206;6.888;2022-12-07T10:03:52;7.10;99.90
5246;DHT22;54412;51.206;6.888;2022-12-07T10:06:20;7.10;99.90
5246;DHT22;54412;51.206;6.888;2022-12-07T10:08:46;7.10;99.90
5246;DHT22;54412;51.206;6.888;2022-12-07T10:11:12;7.20;99.90
5246;DHT22;54412;51.206;6.888;2022-12-07T10:13:46;7.20;99.90
5246;DHT22;54412;51.206;6.888;2022-12-07T10:16:37;7.20;99.90
5246;DHT22;54412;51.206;6.888;2022-12-07T10:19:37;7.20;99.90
5246;DHT22;54412;51.206;6.888;2022-12-07T10:22:04;7.00;99.90
5246;DHT22;54412;51.206;6.888;2022-12-07T10:24:39;7.10;99.90
5246;DHT22;54412;51.206;6.888;2022-12-07T10:27:31;7.10;99.90
5246;DHT22;54412;51.206;6.888;2022-12-07T10:29:58;7.00;99.90
5246;DHT22;54412;51.206;6.888;2022-12-07T10:32:30;7.10;99.90
5246;DHT22;54412;51.206;6.888;2022-12-07T10:35:27;7.10;99.90
5246;DHT22;54412;51.206;6.888;2022-12-07T10:37:56;7.00;99.90
5246;DHT22;54412;51.206;6.888;2022-12-07T10:40:36;7.00;99.90
5246;DHT22;54412;51.206;6.888;2022-12-07T10:52:19;7.10;99.90
5246;DHT22;54412;51.206;6.888;2022-12-07T10:55:26;7.20;99.90
5246;DHT22;54412;51.206;6.888;2022-12-07T11:07:06;7.30;99.90
5246;DHT22;54412;51.206;6.888;2022-12-07T11:16:03;7.40;99.90
5246;DHT22;54412;51.206;6.888;2022-12-07T11:18:48;7.40;99.90
5246;DHT22;54412;51.206;6.888;2022-12-07T11:21:27;7.60;99.90
5246;DHT22;54412;51.206;6.888;2022-12-07T11:26:57;7.50;99.90
5246;DHT22;54412;51.206;6.888;2022-12-07T11:30:10;7.60;99.90
5246;DHT22;54412;51.206;6.888;2022-12-07T11:35:49;8.10;99.90
5246;DHT22;54412;51.206;6.888;2022-12-07T11:41:31;9.20;99.90
5246;DHT22;54412;51.206;6.888;2022-12-07T11:44:06;9.80;99.90
5246;DHT22;54412;51.206;6.888;2022-12-07T11:46:47;10.10;99.90
5246;DHT22;54412;51.206;6.888;2022-12-07T11:49:27;9.60;99.90
5246;DHT22;54412;51.206;6.888;2022-12-07T11:55:47;9.10;99.90
5246;DHT22;54412;51.206;6.888;2022-12-07T12:06:44;8.80;99.90
5246;DHT22;54412;51.206;6.888;2022-12-07T12:20:31;8.50;99.90
5246;DHT22;54412;51.206;6.888;2022-12-07T12:23:17;8.50;99.90
5246;DHT22;54412;51.206;6.888;2022-12-07T12:25:54;8.50;99.90
5246;DHT22;54412;51.206;6.888;2022-12-07T12:28:41;8.20;99.90
5246;DHT22;54412;51.206;6.888;2022-12-07T12:31:16;8.20;99.90
5246;DHT22;54412;51.206;6.888;2022-12-07T12:34:00;8.20;99.90
5246;DHT22;54412;51.206;6.888;2022-12-07T12:47:03;8.20;99.90
5246;DHT22;54412;51.206;6.888;2022-12-07T12:50:19;8.20;99.90
5246;DHT22;54412;51.206;6.888;2022-12-07T13:00:47;7.90;99.90
5246;DHT22;54412;51.206;6.888;2022-12-07T13:03:26;7.80;99.90
5246;DHT22;54412;51.206;6.888;2022-12-07T13:08:52;7.80;99.90
5246;DHT22;54412;51.206;6.888;2022-12-07T13:11:28;7.90;99.90
5246;DHT22;54412;51.206;6.888;2022-12-07T13:20:05;7.90;99.90
5246;DHT22;54412;51.206;6.888;2022-12-07T13:25:33;7.80;99.90
5246;DHT22;54412;51.206;6.888;2022-12-07T13:28:15;7.90;99.90
5246;DHT22;54412;51.206;6.888;2022-12-07T13:30:54;7.80;99.90
5246;DHT22;54412;51.206;6.888;2022-12-07T13:33:28;7.80;99.90
5246;DHT22;54412;51.206;6.888;2022-12-07T13:35:55;7.80;99.90
5246;DHT22;54412;51.206;6.888;2022-12-07T13:38:34;7.80;99.90
5246;DHT22;54412;51.206;6.888;2022-12-07T13:41:12;7.80;99.90
5246;DHT22;54412;51.206;6.888;2022-12-07T13:43:43;7.80;99.90
5246;DHT22;54412;51.206;6.888;2022-12-07T13:46:21;7.80;99.90
5246;DHT22;54412;51.206;6.888;2022-12-07T13:48:52;7.80;99.90
5246;DHT22;54412;51.206;6.888;2022-12-07T13:51:20;7.80;99.90
5246;DHT22;54412;51.206;6.888;2022-12-07T13:54:06;7.70;99.90
5246;DHT22;54412;51.206;6.888;2022-12-07T13:56:35;7.70;99.90
5246;DHT22;54412;51.206;6.888;2022-12-07T13:59:02;7.70;99.90
5246;DHT22;54412;51.206;6.888;2022-12-07T14:01:36;7.80;99.90
5246;DHT22;54412;51.206;6.888;2022-12-07T14:06:52;7.90;99.90
5246;DHT22;54412;51.206;6.888;2022-12-07T14:09:23;8.00;99.90
5246;DHT22;54412;51.206;6.888;2022-12-07T14:11:53;8.00;99.90
5246;DHT22;54412;51.206;6.888;2022-12-07T14:14:22;8.00;99.90
5246;DHT22;54412;51.206;6.888;2022-12-07T14:17:12;8.00;99.90
5246;DHT22;54412;51.206;6.888;2022-12-07T14:24:45;8.00;99.90
5246;DHT22;54412;51.206;6.888;2022-12-07T14:27:22;7.90;99.90
5246;DHT22;54412;51.206;6.888;2022-12-07T14:29:55;8.00;99.90
5246;DHT22;54412;51.206;6.888;2022-12-07T14:32:26;7.90;99.90
5246;DHT22;54412;51.206;6.888;2022-12-07T14:37:37;7.90;99.90
5246;DHT22;54412;51.206;6.888;2022-12-07T14:40:04;7.90;99.90
5246;DHT22;54412;51.206;6.888;2022-12-07T14:42:31;7.90;99.90
5246;DHT22;54412;51.206;6.888;2022-12-07T14:44:59;7.90;99.90
5246;DHT22;54412;51.206;6.888;2022-12-07T14:47:26;7.70;99.90
5246;DHT22;54412;51.206;6.888;2022-12-07T14:49:52;7.70;99.90
5246;DHT22;54412;51.206;6.888;2022-12-07T14:52:24;7.70;99.90
5246;DHT22;54412;51.206;6.888;2022-12-07T14:54:55;7.80;99.90
5246;DHT22;54412;51.206;6.888;2022-12-07T14:57:21;7.70;99.90
5246;DHT22;54412;51.206;6.888;2022-12-07T14:59:46;7.70;99.90
5246;DHT22;54412;51.206;6.888;2022-12-07T15:02:14;7.70;99.90
5246;DHT22;54412;51.206;6.888;2022-12-07T15:04:40;7.70;99.90
5246;DHT22;54412;51.206;6.888;2022-12-07T15:07:13;7.70;99.90
5246;DHT22;54412;51.206;6.888;2022-12-07T15:09:43;7.60;99.90
5246;DHT22;54412;51.206;6.888;2022-12-07T15:12:09;7.60;99.90
5246;DHT22;54412;51.206;6.888;2022-12-07T15:14:35;7.60;99.90
5246;DHT22;54412;51.206;6.888;2022-12-07T15:17:01;7.40;99.90
5246;DHT22;54412;51.206;6.888;2022-12-07T15:19:26;7.50;99.90
5246;DHT22;54412;51.206;6.888;2022-12-07T15:21:52;7.50;99.90
5246;DHT22;54412;51.206;6.888;2022-12-07T15:24:18;7.50;99.90
5246;DHT22;54412;51.206;6.888;2022-12-07T15:26:45;7.40;99.90
5246;DHT22;54412;51.206;6.888;2022-12-07T15:29:11;7.40;99.90
5246;DHT22;54412;51.206;6.888;2022-12-07T15:31:37;7.40;99.90
5246;DHT22;54412;51.206;6.888;2022-12-07T15:34:04;7.40;99.90
5246;DHT22;54412;51.206;6.888;2022-12-07T15:36:31;7.40;99.90
5246;DHT22;54412;51.206;6.888;2022-12-07T15:38:59;7.40;99.90
5246;DHT22;54412;51.206;6.888;2022-12-07T15:41:25;7.40;99.90
5246;DHT22;54412;51.206;6.888;2022-12-07T15:43:51;7.40;99.90
5246;DHT22;54412;51.206;6.888;2022-12-07T15:46:37;7.40;99.90
5246;DHT22;54412;51.206;6.888;2022-12-07T15:49:08;7.40;99.90
5246;DHT22;54412;51.206;6.888;2022-12-07T15:51:37;7.40;99.90
5246;DHT22;54412;51.206;6.888;2022-12-07T15:54:03;7.40;99.90
5246;DHT22;54412;51.206;6.888;2022-12-07T15:56:28;7.00;99.90
5246;DHT22;54412;51.206;6.888;2022-12-07T15:58:56;7.00;99.90
5246;DHT22;54412;51.206;6.888;2022-12-07T16:01:22;7.00;99.90
5246;DHT22;54412;51.206;6.888;2022-12-07T16:03:48;7.00;99.90
5246;DHT22;54412;51.206;6.888;2022-12-07T16:06:17;7.10;99.90
5246;DHT22;54412;51.206;6.888;2022-12-07T16:08:44;6.80;99.90
5246;DHT22;54412;51.206;6.888;2022-12-07T16:11:11;6.70;99.90
5246;DHT22;54412;51.206;6.888;2022-12-07T16:13:38;6.70;99.90
5246;DHT22;54412;51.206;6.888;2022-12-07T16:16:07;6.70;99.90
5246;DHT22;54412;51.206;6.888;2022-12-07T16:18:35;6.70;99.90
5246;DHT22;54412;51.206;6.888;2022-12-07T16:21:00;6.90;99.90
5246;DHT22;54412;51.206;6.888;2022-12-07T16:23:26;6.90;99.90
5246;DHT22;54412;51.206;6.888;2022-12-07T16:25:52;6.90;99.90
5246;DHT22;54412;51.206;6.888;2022-12-07T16:28:18;6.90;99.90
5246;DHT22;54412;51.206;6.888;2022-12-07T16:30:44;6.90;99.90
5246;DHT22;54412;51.206;6.888;2022-12-07T16:33:10;6.90;99.90
5246;DHT22;54412;51.206;6.888;2022-12-07T16:35:40;7.00;99.90
5246;DHT22;54412;51.206;6.888;2022-12-07T16:38:06;7.10;99.90
5246;DHT22;54412;51.206;6.888;2022-12-07T16:40:32;7.10;99.90
5246;DHT22;54412;51.206;6.888;2022-12-07T16:42:58;7.00;99.90
5246;DHT22;54412;51.206;6.888;2022-12-07T16:45:24;7.00;99.90
5246;DHT22;54412;51.206;6.888;2022-12-07T16:47:49;7.00;99.90
5246;DHT22;54412;51.206;6.888;2022-12-07T16:50:15;7.00;99.90
5246;DHT22;54412;51.206;6.888;2022-12-07T16:52:41;7.00;99.90
5246;DHT22;54412;51.206;6.888;2022-12-07T16:55:07;6.90;99.90
5246;DHT22;54412;51.206;6.888;2022-12-07T16:57:32;7.00;99.90
5246;DHT22;54412;51.206;6.888;2022-12-07T16:59:58;6.90;99.90
5246;DHT22;54412;51.206;6.888;2022-12-07T17:02:24;7.00;99.90
5246;DHT22;54412;51.206;6.888;2022-12-07T17:04:50;6.90;99.90
5246;DHT22;54412;51.206;6.888;2022-12-07T17:07:16;7.00;99.90
5246;DHT22;54412;51.206;6.888;2022-12-07T17:09:42;7.00;99.90
5246;DHT22;54412;51.206;6.888;2022-12-07T17:12:08;7.00;99.90
5246;DHT22;54412;51.206;6.888;2022-12-07T17:14:34;7.00;99.90
5246;DHT22;54412;51.206;6.888;2022-12-07T17:17:19;6.90;99.90
5246;DHT22;54412;51.206;6.888;2022-12-07T17:19:45;7.00;99.90
5246;DHT22;54412;51.206;6.888;2022-12-07T17:22:10;6.90;99.90
5246;DHT22;54412;51.206;6.888;2022-12-07T17:24:38;7.00;99.90
5246;DHT22;54412;51.206;6.888;2022-12-07T17:27:04;7.00;99.90
5246;DHT22;54412;51.206;6.888;2022-12-07T17:29:30;6.90;99.90
5246;DHT22;54412;51.206;6.888;2022-12-07T17:31:55;7.00;99.90
5246;DHT22;54412;51.206;6.888;2022-12-07T17:34:22;7.10;99.90
5246;DHT22;54412;51.206;6.888;2022-12-07T17:36:48;6.90;99.90
5246;DHT22;54412;51.206;6.888;2022-12-07T17:39:16;6.80;99.90
5246;DHT22;54412;51.206;6.888;2022-12-07T17:41:43;6.80;99.90
5246;DHT22;54412;51.206;6.888;2022-12-07T17:44:28;6.90;99.90
5246;DHT22;54412;51.206;6.888;2022-12-07T17:46:54;7.00;99.90
5246;DHT22;54412;51.206;6.888;2022-12-07T17:49:23;6.80;99.90
5246;DHT22;54412;51.206;6.888;2022-12-07T17:51:50;6.80;99.90
5246;DHT22;54412;51.206;6.888;2022-12-07T17:54:34;6.90;99.90
5246;DHT22;54412;51.206;6.888;2022-12-07T17:57:00;6.90;99.90
5246;DHT22;54412;51.206;6.888;2022-12-07T17:59:26;6.80;99.90
5246;DHT22;54412;51.206;6.888;2022-12-07T18:01:51;6.80;99.90
5246;DHT22;54412;51.206;6.888;2022-12-07T18:04:17;6.70;99.90
5246;DHT22;54412;51.206;6.888;2022-12-07T18:06:43;6.70;99.90
5246;DHT22;54412;51.206;6.888;2022-12-07T18:09:10;6.70;99.90
5246;DHT22;54412;51.206;6.888;2022-12-07T18:11:36;6.70;99.90
5246;DHT22;54412;51.206;6.888;2022-12-07T18:14:03;6.60;99.90
5246;DHT22;54412;51.206;6.888;2022-12-07T18:16:31;6.60;99.90
5246;DHT22;54412;51.206;6.888;2022-12-07T18:18:59;6.50;99.90
5246;DHT22;54412;51.206;6.888;2022-12-07T18:21:27;6.50;99.90
5246;DHT22;54412;51.206;6.888;2022-12-07T18:23:57;6.70;99.90
5246;DHT22;54412;51.206;6.888;2022-12-07T18:26:27;6.70;99.90
5246;DHT22;54412;51.206;6.888;2022-12-07T18:28:54;6.80;99.90
5246;DHT22;54412;51.206;6.888;2022-12-07T18:31:20;6.60;99.90
5246;DHT22;54412;51.206;6.888;2022-12-07T18:33:46;6.70;99.90